createdAt,value
2023-02-11T00:01:22.584Z,101790.41
2023-02-11T00:03:49.949Z,101792.34
2023-02-11T00:06:17.316Z,101797.13
2023-02-11T00:08:43.730Z,101792.34
2023-02-11T00:14:05.014Z,101764.19
2023-02-11T00:16:32.555Z,101770.94
2023-02-11T00:18:59.917Z,101765.38
2023-02-11T00:21:26.359Z,101763.41
2023-02-11T00:23:53.630Z,101762.59
2023-02-11T00:29:17.508Z,101747.88
2023-02-11T00:31:44.017Z,101752.28
2023-02-11T00:34:10.539Z,101747.88
2023-02-11T00:36:37.794Z,101740.38
2023-02-11T00:39:05.136Z,101742.31
2023-02-11T00:44:15.752Z,101713.75
2023-02-11T00:46:43.179Z,101704.25
2023-02-11T00:49:10.500Z,101692.66
2023-02-11T00:51:36.938Z,101688.72
2023-02-11T00:54:04.241Z,101681.56
2023-02-11T00:59:15.541Z,101658.16
2023-02-11T01:01:42.858Z,101655.38
2023-02-11T01:04:11.317Z,101652.59
2023-02-11T01:06:37.764Z,101651.81
2023-02-11T01:09:05.060Z,101652.97
2023-02-11T01:14:27.432Z,101640.69
2023-02-11T01:16:55.753Z,101620.41
2023-02-11T01:19:22.259Z,101613.69
2023-02-11T01:21:50.610Z,101606.53
2023-02-11T01:24:19.806Z,101590.66
2023-02-11T01:29:32.044Z,101583.13
2023-02-11T01:31:58.544Z,101570.03
2023-02-11T01:34:26.786Z,101569.22
2023-02-11T01:36:53.245Z,101581.97
2023-02-11T01:39:23.156Z,101581.97
2023-02-11T01:44:48.001Z,101596.66
2023-02-11T01:47:14.474Z,101602.22
2023-02-11T01:49:44.408Z,101604.19
2023-02-11T01:52:10.902Z,101592.25
2023-02-11T01:54:40.060Z,101588.31
2023-02-11T02:00:02.659Z,101561.25
2023-02-11T02:02:29.091Z,101554.53
2023-02-11T02:04:58.254Z,101557.31
2023-02-11T02:07:24.669Z,101545.00
2023-02-11T02:09:51.099Z,101545.00
2023-02-11T02:15:11.936Z,101508.09
2023-02-11T02:17:38.366Z,101509.25
2023-02-11T02:20:04.820Z,101505.31
2023-02-11T02:22:33.983Z,101501.38
2023-02-11T02:25:03.915Z,101504.16
2023-02-11T02:30:29.452Z,101500.56
2023-02-11T02:32:55.926Z,101503.31
2023-02-11T02:35:23.164Z,101495.81
2023-02-11T02:37:53.079Z,101477.53
2023-02-11T02:40:22.230Z,101471.19
2023-02-11T02:45:35.155Z,101469.97
2023-02-11T02:48:02.416Z,101478.31
2023-02-11T02:50:28.936Z,101472.38
2023-02-11T02:52:55.358Z,101469.19
2023-02-11T02:55:21.776Z,101476.38
2023-02-11T03:00:34.038Z,101462.03
2023-02-11T03:03:02.325Z,101454.94
2023-02-11T03:05:30.626Z,101455.28
2023-02-11T03:07:57.024Z,101456.47
2023-02-11T03:10:23.498Z,101456.09
2023-02-11T03:15:36.939Z,101441.03
2023-02-11T03:18:03.357Z,101432.69
2023-02-11T03:20:29.794Z,101425.16
2023-02-11T03:22:57.070Z,101422.38
2023-02-11T03:25:26.216Z,101422.38
2023-02-11T03:30:46.441Z,101411.25
2023-02-11T03:33:12.868Z,101410.47
2023-02-11T03:35:40.150Z,101397.72
2023-02-11T03:38:06.589Z,101388.59
2023-02-11T03:40:34.842Z,101388.22
2023-02-11T03:45:58.696Z,101393.78
2023-02-11T03:48:26.017Z,101388.22
2023-02-11T03:50:52.416Z,101383.84
2023-02-11T03:53:18.844Z,101377.13
2023-02-11T03:55:45.280Z,101380.69
2023-02-11T04:01:05.816Z,101359.66
2023-02-11T04:03:32.240Z,101345.75
2023-02-11T04:05:58.642Z,101333.03
2023-02-11T04:08:25.095Z,101319.13
2023-02-11T04:10:51.548Z,101308.03
2023-02-11T04:16:14.847Z,101304.44
2023-02-11T04:18:44.097Z,101306.84
2023-02-11T04:21:10.506Z,101309.63
2023-02-11T04:23:36.979Z,101314.38
2023-02-11T04:26:03.414Z,101302.09
2023-02-11T04:31:16.663Z,101293.34
2023-02-11T04:33:45.029Z,101286.94
2023-02-11T04:36:12.267Z,101283.00
2023-02-11T04:38:41.437Z,101278.25
2023-02-11T04:41:07.762Z,101272.69
2023-02-11T04:43:34.126Z,101254.06
2023-02-11T04:46:03.320Z,101239.34
2023-02-11T04:48:29.740Z,101229.41
2023-02-11T04:50:56.987Z,101221.09
2023-02-11T04:53:23.358Z,101223.88
2023-02-11T04:55:50.039Z,101222.25
2023-02-11T04:58:16.600Z,101217.09
2023-02-11T05:00:43.093Z,101208.78
2023-02-11T05:03:11.352Z,101213.53
2023-02-11T05:05:40.506Z,101219.50
2023-02-11T05:08:06.930Z,101217.94
2023-02-11T05:10:33.342Z,101210.38
2023-02-11T05:12:59.766Z,101204.03
2023-02-11T05:15:26.147Z,101187.38
2023-02-11T05:17:55.332Z,101190.13
2023-02-11T05:20:21.741Z,101183.75
2023-02-11T05:22:48.082Z,101166.31
2023-02-11T05:25:14.596Z,101161.16
2023-02-11T05:27:42.877Z,101169.50
2023-02-11T05:30:10.143Z,101171.09
2023-02-11T05:32:36.581Z,101175.06
2023-02-11T05:35:03.816Z,101176.66
2023-02-11T05:37:31.196Z,101187.78
2023-02-11T05:39:57.651Z,101181.41
2023-02-11T05:42:24.090Z,101175.84
2023-02-11T05:44:51.350Z,101175.06
2023-02-11T05:47:17.748Z,101174.25
2023-02-11T05:49:46.084Z,101167.50
2023-02-11T05:52:12.484Z,101152.81
2023-02-11T05:54:40.765Z,101160.00
2023-02-11T05:57:07.175Z,101158.00
2023-02-11T05:59:36.299Z,101154.06
2023-02-11T06:04:57.665Z,101154.06
2023-02-11T06:07:26.877Z,101142.94
2023-02-11T06:09:53.274Z,101148.50
2023-02-11T06:12:19.684Z,101132.59
2023-02-11T06:14:48.878Z,101134.59
2023-02-11T06:20:00.206Z,101119.09
2023-02-11T06:22:26.628Z,101126.25
2023-02-11T06:25:01.256Z,101130.63
2023-02-11T06:27:29.236Z,101115.16
2023-02-11T06:29:55.650Z,101120.72
2023-02-11T06:35:16.158Z,101114.31
2023-02-11T06:37:42.591Z,101099.66
2023-02-11T06:40:09.103Z,101107.59
2023-02-11T06:42:35.788Z,101100.44
2023-02-11T06:45:04.083Z,101092.50
2023-02-11T06:50:16.249Z,101104.06
2023-02-11T06:52:42.687Z,101091.34
2023-02-11T06:55:09.099Z,101103.63
2023-02-11T06:57:35.540Z,101091.34
2023-02-11T07:00:02.072Z,101071.88
2023-02-11T07:05:14.514Z,101070.72
2023-02-11T07:07:40.909Z,101072.28
2023-02-11T07:10:10.074Z,101074.28
2023-02-11T07:12:39.231Z,101083.78
2023-02-11T07:15:07.530Z,101097.31
2023-02-11T07:20:29.105Z,101079.84
2023-02-11T07:22:55.580Z,101082.63
2023-02-11T07:25:22.049Z,101079.84
2023-02-11T07:27:48.462Z,101074.66
2023-02-11T07:30:14.955Z,101071.09
2023-02-11T07:35:25.512Z,101074.28
2023-02-11T07:37:51.870Z,101082.22
2023-02-11T07:40:18.298Z,101060.75
2023-02-11T07:42:44.717Z,101056.00
2023-02-11T07:45:11.136Z,101053.22
2023-02-11T07:50:31.552Z,101061.16
2023-02-11T07:52:58.781Z,101056.00
2023-02-11T07:55:25.148Z,101052.06
2023-02-11T07:57:52.393Z,101054.81
2023-02-11T08:00:21.054Z,101058.41
2023-02-11T08:05:44.337Z,101048.09
2023-02-11T08:08:11.590Z,101055.63
2023-02-11T08:10:38.014Z,101038.94
2023-02-11T08:13:04.453Z,101036.56
2023-02-11T08:15:31.689Z,101036.56
2023-02-11T08:20:54.578Z,101043.72
2023-02-11T08:23:21.025Z,101031.00
2023-02-11T08:25:47.438Z,101022.69
2023-02-11T08:28:13.943Z,101018.31
2023-02-11T08:30:40.446Z,101015.53
2023-02-11T08:36:03.451Z,101012.75
2023-02-11T08:38:32.685Z,101023.09
2023-02-11T08:40:59.950Z,101019.91
2023-02-11T08:43:26.380Z,101012.75
2023-02-11T08:45:53.266Z,101003.63
2023-02-11T08:51:04.026Z,100980.59
2023-02-11T08:53:33.185Z,100966.31
2023-02-11T08:56:03.169Z,100949.25
2023-02-11T08:58:32.342Z,100958.38
2023-02-11T09:01:00.666Z,100975.47
2023-02-11T09:06:24.469Z,100940.53
2023-02-11T09:08:50.983Z,100927.81
2023-02-11T09:11:20.168Z,100925.84
2023-02-11T09:13:46.604Z,100929.41
2023-02-11T09:16:13.052Z,100940.97
2023-02-11T09:21:25.954Z,100932.19
2023-02-11T09:23:53.199Z,100939.72
2023-02-11T09:26:21.529Z,100937.75
2023-02-11T09:28:48.038Z,100935.75
2023-02-11T09:31:14.518Z,100943.31
2023-02-11T09:36:35.703Z,100948.88
2023-02-11T09:39:02.180Z,100952.44
2023-02-11T09:41:30.501Z,100976.28
2023-02-11T09:43:56.917Z,100987.78
2023-02-11T09:46:25.293Z,100987.38
2023-02-11T09:51:38.678Z,100980.22
2023-02-11T09:54:05.661Z,100960.75
2023-02-11T09:56:32.965Z,100953.63
2023-02-11T09:58:59.298Z,100934.19
2023-02-11T10:01:25.815Z,100927.81
2023-02-11T10:06:36.036Z,100934.19
2023-02-11T10:09:02.440Z,100943.31
2023-02-11T10:11:32.519Z,100940.91
2023-02-11T10:13:59.123Z,100943.69
2023-02-11T10:16:25.522Z,100954.81
2023-02-11T10:21:49.594Z,100920.28
2023-02-11T10:24:15.974Z,100908.34
2023-02-11T10:26:42.410Z,100912.31
2023-02-11T10:29:08.851Z,100903.19
2023-02-11T10:31:35.449Z,100890.47
2023-02-11T10:37:00.775Z,100881.75
2023-02-11T10:39:27.275Z,100877.00
2023-02-11T10:41:53.706Z,100872.59
2023-02-11T10:44:20.178Z,100867.03
2023-02-11T10:46:46.713Z,100867.03
2023-02-11T10:52:02.049Z,100861.50
2023-02-11T10:54:30.307Z,100846.81
2023-02-11T10:56:56.725Z,100853.56
2023-02-11T10:59:23.954Z,100853.97
2023-02-11T11:01:53.245Z,100852.75
2023-02-11T11:07:03.547Z,100846.81
2023-02-11T11:09:29.952Z,100844.44
2023-02-11T11:11:56.366Z,100849.19
2023-02-11T11:14:25.565Z,100877.00
2023-02-11T11:16:52.047Z,100871.03
2023-02-11T11:22:13.328Z,100884.16
2023-02-11T11:24:40.597Z,100892.50
2023-02-11T11:27:07.015Z,100883.34
2023-02-11T11:29:35.307Z,100872.22
2023-02-11T11:32:01.829Z,100879.78
2023-02-11T11:37:25.101Z,100867.47
2023-02-11T11:39:54.604Z,100865.88
2023-02-11T11:42:21.071Z,100865.50
2023-02-11T11:44:47.477Z,100843.25
2023-02-11T11:47:15.765Z,100844.03
2023-02-11T11:52:36.454Z,100822.63
2023-02-11T11:55:03.774Z,100823.81
2023-02-11T11:57:31.071Z,100825.78
2023-02-11T11:59:59.406Z,100815.47
2023-02-11T12:02:27.784Z,100813.84
2023-02-11T12:07:51.438Z,100821.03
2023-02-11T12:10:18.841Z,100824.97
2023-02-11T12:12:46.860Z,100829.34
2023-02-11T12:15:14.284Z,100816.63
2023-02-11T12:17:41.537Z,100817.47
2023-02-11T12:22:52.934Z,100828.56
2023-02-11T12:25:19.425Z,100818.25
2023-02-11T12:27:46.842Z,100827.38
2023-02-11T12:30:15.148Z,100817.06
2023-02-11T12:32:41.625Z,100826.19
2023-02-11T12:38:04.104Z,100821.81
2023-02-11T12:40:30.607Z,100829.34
2023-02-11T12:43:02.204Z,100824.22
2023-02-11T12:45:29.084Z,100821.44
2023-02-11T12:47:57.436Z,100816.69
2023-02-11T12:53:19.670Z,100802.00
2023-02-11T12:55:46.490Z,100813.97
2023-02-11T12:58:14.799Z,100804.81
2023-02-11T13:00:41.329Z,100823.53
2023-02-11T13:03:07.768Z,100810.44
2023-02-11T13:08:18.394Z,100820.34
2023-02-11T13:10:44.798Z,100817.19
2023-02-11T13:13:11.237Z,100818.34
2023-02-11T13:15:40.404Z,100832.69
2023-02-11T13:18:06.802Z,100806.47
2023-02-11T13:20:34.059Z,100806.50
2023-02-11T13:23:00.723Z,100827.13
2023-02-11T13:25:27.066Z,100829.53
2023-02-11T13:27:53.535Z,100823.81
2023-02-11T13:30:20.911Z,100811.00
2023-02-11T13:32:48.258Z,100834.97
2023-02-11T13:35:14.925Z,100840.06
2023-02-11T13:37:42.534Z,100826.84
2023-02-11T13:40:09.095Z,100832.84
2023-02-11T13:42:36.484Z,100825.41
2023-02-11T13:45:03.887Z,100826.06
2023-02-11T13:47:30.384Z,100818.13
2023-02-11T13:49:57.804Z,100823.22
2023-02-11T13:52:24.277Z,100821.66
2023-02-11T13:54:50.783Z,100822.16
2023-02-11T13:57:18.346Z,100824.84
2023-02-11T13:59:44.805Z,100821.66
2023-02-11T14:02:11.313Z,100826.34
2023-02-11T14:04:37.796Z,100823.56
2023-02-11T14:07:04.302Z,100824.53
2023-02-11T14:09:30.766Z,100832.63
2023-02-11T14:11:57.275Z,100826.75
2023-02-11T14:14:23.777Z,100824.72
2023-02-11T14:16:50.257Z,100831.84
2023-02-11T14:19:17.733Z,100835.44
2023-02-11T14:21:44.210Z,100838.81
2023-02-11T14:24:11.652Z,100845.50
2023-02-11T14:26:38.136Z,100842.84
2023-02-11T14:29:04.611Z,100844.53
2023-02-11T14:31:32.137Z,100839.41
2023-02-11T14:33:58.660Z,100836.66
2023-02-11T14:36:25.117Z,100839.78
2023-02-11T14:41:36.640Z,100849.66
2023-02-11T14:44:03.121Z,100851.66
2023-02-11T14:46:29.659Z,100851.59
2023-02-11T14:48:56.169Z,100839.31
2023-02-11T14:51:23.556Z,100847.66
2023-02-11T14:56:34.350Z,100850.81
2023-02-11T14:59:00.863Z,100850.00
2023-02-11T15:01:28.283Z,100858.31
2023-02-11T15:03:55.681Z,100845.66
2023-02-11T15:06:23.085Z,100846.47
2023-02-11T15:11:43.736Z,100857.56
2023-02-11T15:14:10.160Z,100852.22
2023-02-11T15:16:36.726Z,100858.63
2023-02-11T15:19:03.218Z,100856.22
2023-02-11T15:21:30.507Z,100856.25
2023-02-11T15:26:50.859Z,100861.00
2023-02-11T15:29:17.374Z,100858.97
2023-02-11T15:31:44.786Z,100860.13
2023-02-11T15:34:11.345Z,100875.38
2023-02-11T15:36:38.653Z,100871.81
2023-02-11T15:42:01.165Z,100883.72
2023-02-11T15:44:28.586Z,100880.84
2023-02-11T15:46:57.768Z,100891.22
2023-02-11T15:49:25.015Z,100885.63
2023-02-11T15:51:51.463Z,100885.63
2023-02-11T15:57:05.428Z,100892.44
2023-02-11T15:59:31.935Z,100890.44
2023-02-11T16:01:59.306Z,100891.94
2023-02-11T16:04:25.776Z,100896.75
2023-02-11T16:06:52.318Z,100904.84
2023-02-11T16:12:04.582Z,100909.41
2023-02-11T16:14:32.024Z,100903.50
2023-02-11T16:16:58.498Z,100921.72
2023-02-11T16:19:25.906Z,100927.69
2023-02-11T16:21:53.281Z,100936.38
2023-02-11T16:27:15.573Z,100933.22
2023-02-11T16:29:42.023Z,100931.31
2023-02-11T16:32:08.502Z,100934.88
2023-02-11T16:34:35.788Z,100937.66
2023-02-11T16:37:03.088Z,100942.44
2023-02-11T16:42:24.439Z,100952.34
2023-02-11T16:44:51.051Z,100948.38
2023-02-11T16:47:18.292Z,100959.16
2023-02-11T16:49:44.769Z,100966.56
2023-02-11T16:52:11.999Z,100958.59
2023-02-11T16:57:22.446Z,100961.38
2023-02-11T16:59:52.384Z,100959.75
2023-02-11T17:02:19.065Z,100972.84
2023-02-11T17:04:45.597Z,100976.44
2023-02-11T17:07:13.954Z,100975.69
2023-02-11T17:12:36.206Z,100987.94
2023-02-11T17:15:06.636Z,100998.66
2023-02-11T17:17:34.078Z,100993.97
2023-02-11T17:20:00.585Z,101005.53
2023-02-11T17:22:27.081Z,101004.34
2023-02-11T17:27:52.784Z,101019.03
2023-02-11T17:30:22.086Z,101017.88
2023-02-11T17:32:48.519Z,101023.41
2023-02-11T17:35:14.946Z,101027.78
2023-02-11T17:37:41.434Z,101032.94
2023-02-11T17:43:03.690Z,101044.81
2023-02-11T17:45:31.291Z,101047.97
2023-02-11T17:47:58.628Z,101052.72
2023-02-11T17:50:27.081Z,101050.75
2023-02-11T17:52:54.624Z,101050.34
2023-02-11T17:58:06.310Z,101057.88
2023-02-11T18:00:32.733Z,101052.69
2023-02-11T18:03:00.036Z,101064.25
2023-02-11T18:05:27.501Z,101059.09
2023-02-11T18:07:54.772Z,101058.66
2023-02-11T18:13:08.861Z,101086.47
2023-02-11T18:15:37.426Z,101082.09
2023-02-11T18:18:03.867Z,101080.53
2023-02-11T18:20:33.025Z,101084.88
2023-02-11T18:22:59.463Z,101086.50
2023-02-11T18:28:11.076Z,101094.03
2023-02-11T18:30:39.339Z,101096.38
2023-02-11T18:33:05.783Z,101100.34
2023-02-11T18:35:34.974Z,101095.19
2023-02-11T18:38:04.189Z,101103.53
2023-02-11T18:40:33.384Z,101103.91
2023-02-11T18:43:00.107Z,101112.25
2023-02-11T18:45:28.546Z,101113.06
2023-02-11T18:47:55.024Z,101111.88
2023-02-11T18:50:21.506Z,101113.06
2023-02-11T18:52:47.860Z,101134.50
2023-02-11T18:55:14.246Z,101124.16
2023-02-11T18:57:40.959Z,101134.13
2023-02-11T19:00:08.201Z,101132.53
2023-02-11T19:02:35.444Z,101140.47
2023-02-11T19:05:01.837Z,101142.84
2023-02-11T19:07:28.190Z,101138.09
2023-02-11T19:09:54.541Z,101144.47
2023-02-11T19:12:21.756Z,101145.25
2023-02-11T19:14:48.099Z,101163.59
2023-02-11T19:17:15.300Z,101162.03
2023-02-11T19:19:41.643Z,101174.03
2023-02-11T19:22:10.395Z,101178.38
2023-02-11T19:24:37.068Z,101179.59
2023-02-11T19:27:03.473Z,101184.78
2023-02-11T19:29:29.817Z,101189.88
2023-02-11T19:31:57.191Z,101191.09
2023-02-11T19:34:23.609Z,101197.44
2023-02-11T19:36:49.957Z,101199.06
2023-02-11T19:39:16.294Z,101198.22
2023-02-11T19:41:42.652Z,101198.63
2023-02-11T19:44:09.014Z,101201.81
2023-02-11T19:46:35.620Z,101208.19
2023-02-11T19:49:02.893Z,101205.44
2023-02-11T19:51:29.231Z,101214.16
2023-02-11T19:53:55.740Z,101215.38
2023-02-11T19:56:22.090Z,101222.88
2023-02-11T20:01:32.509Z,101240.41
2023-02-11T20:03:58.914Z,101243.59
2023-02-11T20:06:25.227Z,101243.59
2023-02-11T20:08:51.571Z,101248.34
2023-02-11T20:11:18.944Z,101261.84
2023-02-11T20:16:46.268Z,101271.44
2023-02-11T20:19:14.247Z,101273.84
2023-02-11T20:21:40.791Z,101281.34
2023-02-11T20:24:07.172Z,101288.53
2023-02-11T20:26:33.524Z,101286.13
2023-02-11T20:31:53.762Z,101295.66
2023-02-11T20:34:21.057Z,101304.44
2023-02-11T20:36:47.411Z,101304.88
2023-02-11T20:39:13.756Z,101316.41
2023-02-11T20:41:40.184Z,101315.63
2023-02-11T20:47:00.323Z,101329.59
2023-02-11T20:49:26.633Z,101338.69
2023-02-11T20:51:52.954Z,101346.25
2023-02-11T20:54:19.294Z,101357.41
2023-02-11T20:56:47.816Z,101351.69
2023-02-11T21:02:09.404Z,101354.59
2023-02-11T21:04:35.822Z,101358.50
2023-02-11T21:07:02.208Z,101374.75
2023-02-11T21:09:28.555Z,101373.13
2023-02-11T21:11:54.911Z,101385.44
2023-02-11T21:17:06.410Z,101398.13
2023-02-11T21:19:32.768Z,101390.97
2023-02-11T21:21:59.096Z,101420.34
2023-02-11T21:24:25.456Z,101430.25
2023-02-11T21:26:51.798Z,101433.06
2023-02-11T21:32:13.021Z,101441.00
2023-02-11T21:34:39.634Z,101449.72
2023-02-11T21:37:05.994Z,101456.88
2023-02-11T21:39:32.310Z,101471.59
2023-02-11T21:41:58.823Z,101477.38
2023-02-11T21:47:10.056Z,101489.91
2023-02-11T21:49:36.490Z,101491.06
2023-02-11T21:52:02.959Z,101497.81
2023-02-11T21:54:29.266Z,101496.97
2023-02-11T21:56:55.657Z,101497.59
2023-02-11T22:02:18.732Z,101519.13
2023-02-11T22:04:48.145Z,101515.94
2023-02-11T22:07:14.544Z,101514.91
2023-02-11T22:09:40.863Z,101521.94
2023-02-11T22:12:07.228Z,101527.28
2023-02-11T22:17:17.459Z,101541.50
2023-02-11T22:19:43.832Z,101538.72
2023-02-11T22:22:10.369Z,101550.66
2023-02-11T22:24:36.704Z,101548.94
2023-02-11T22:27:02.999Z,101564.97
2023-02-11T22:32:26.021Z,101576.81
2023-02-11T22:34:53.486Z,101591.16
2023-02-11T22:37:19.978Z,101604.47
2023-02-11T22:39:46.307Z,101612.13
2023-02-11T22:42:12.636Z,101618.34
2023-02-11T22:47:25.850Z,101644.25
2023-02-11T22:49:52.168Z,101648.69
2023-02-11T22:52:21.286Z,101653.53
2023-02-11T22:54:47.623Z,101651.69
2023-02-11T22:57:14.015Z,101650.88
2023-02-11T22:59:40.658Z,101663.31
2023-02-11T23:02:08.104Z,101660.47
2023-02-11T23:04:35.597Z,101670.78
2023-02-11T23:07:02.039Z,101679.91
2023-02-11T23:09:28.387Z,101676.09
2023-02-11T23:11:54.751Z,101682.44
2023-02-11T23:14:21.118Z,101686.34
2023-02-11T23:16:47.653Z,101678.81
2023-02-11T23:19:14.050Z,101690.31
2023-02-11T23:21:40.409Z,101695.00
2023-02-11T23:24:06.754Z,101692.72
2023-02-11T23:26:33.120Z,101701.78
2023-02-11T23:28:59.507Z,101698.22
2023-02-11T23:31:25.931Z,101700.56
2023-02-11T23:33:52.326Z,101703.41
2023-02-11T23:36:18.705Z,101710.06
2023-02-11T23:38:45.038Z,101706.44
2023-02-11T23:41:11.419Z,101719.16
2023-02-11T23:43:40.504Z,101720.28
2023-02-11T23:46:06.929Z,101726.28
2023-02-11T23:48:36.102Z,101738.97
2023-02-11T23:51:05.221Z,101744.56
2023-02-11T23:53:34.343Z,101748.47
2023-02-11T23:56:03.446Z,101753.72
2023-02-11T23:58:29.796Z,101758.91
